Time;durP1;ratioP1;P1;durP2;ratioP2;P2;SDS_P1;SDS_P2;PMS_P1;PMS_P2;Temp;Humidity;BMP_temperature;BMP_pressure;BME280_temperature;BME280_humidity;BME280_pressure;Samples;Min_cycle;Max_cycle;Signal;HPM_P1;HPM_P2
2022/10/16 00:01:26;;;;;;;4.57;2.67;;;;;17.80;98744.00;;;;16572528;28;20222;-48
2022/10/16 00:09:28;;;;;;;4.23;2.37;;;;;18.30;98737.00;;;;16575097;28;20233;-49
2022/10/16 00:17:32;;;;;;;8.00;2.63;;;;;17.90;98736.00;;;;16585192;28;20204;-49
2022/10/16 00:25:36;;;;;;;6.30;2.67;;;;;17.50;98738.00;;;;16583661;28;20251;-49
2022/10/16 00:33:40;;;;;;;2.90;2.70;;;;;18.10;98736.00;;;;16589510;28;20228;-49
2022/10/16 00:41:43;;;;;;;3.80;3.00;;;;;18.30;98727.00;;;;16576548;28;20220;-49
2022/10/16 00:49:48;;;;;;;3.77;2.70;;;;;18.00;98728.00;;;;16585565;28;20290;-49
2022/10/16 00:57:51;;;;;;;4.40;2.40;;;;;17.90;98722.00;;;;16579892;28;20204;-48
2022/10/16 01:06:10;;;;;;;5.03;2.50;;;;;18.00;98736.00;;;;16582661;28;20373;-49
2022/10/16 01:14:16;;;;;;;6.63;2.50;;;;;17.50;98748.00;;;;16601391;28;20271;-50
2022/10/16 01:22:21;;;;;;;8.87;2.77;;;;;17.30;98759.00;;;;16592891;22;20323;-49
2022/10/16 01:30:27;;;;;;;5.07;3.27;;;;;17.60;98763.00;;;;16568413;28;20361;-49
2022/10/16 01:38:32;;;;;;;6.30;3.30;;;;;18.10;98751.00;;;;16571020;28;20219;-49
2022/10/16 01:46:40;;;;;;;5.63;2.70;;;;;18.10;98728.00;;;;16563294;28;20228;-49
2022/10/16 01:54:44;;;;;;;7.97;2.40;;;;;17.90;98727.00;;;;16568312;28;20234;-49
2022/10/16 02:02:51;;;;;;;5.70;2.87;;;;;17.40;98726.00;;;;16563706;28;20595;-47
2022/10/16 02:10:53;;;;;;;7.03;2.47;;;;;17.70;98723.00;;;;16565289;28;20270;-49
2022/10/16 02:18:57;;;;;;;6.23;3.20;;;;;17.90;98725.00;;;;16561062;28;20203;-49
2022/10/16 02:27:04;;;;;;;9.03;2.70;;;;;18.20;98734.00;;;;16562854;28;20231;-50
2022/10/16 02:35:09;;;;;;;7.40;3.10;;;;;17.80;98724.00;;;;16561927;28;20722;-49
2022/10/16 02:43:11;;;;;;;8.33;3.17;;;;;18.30;98713.00;;;;16570189;28;20223;-50
2022/10/16 02:51:15;;;;;;;6.67;3.13;;;;;18.10;98731.00;;;;16559253;28;20242;-49
2022/10/16 02:59:17;;;;;;;5.00;2.77;;;;;18.50;98727.00;;;;16554303;28;20207;-49
2022/10/16 03:07:21;;;;;;;3.37;3.00;;;;;18.60;98738.00;;;;16549159;28;20357;-47
2022/10/16 03:15:23;;;;;;;11.47;3.07;;;;;17.50;98747.00;;;;16561774;28;20227;-47
2022/10/16 03:23:28;;;;;;;4.10;2.80;;;;;17.50;98744.00;;;;16553743;28;20231;-47
2022/10/16 03:31:31;;;;;;;8.47;2.80;;;;;17.40;98750.00;;;;16563296;28;20629;-47
2022/10/16 03:39:34;;;;;;;8.93;3.07;;;;;17.50;98741.00;;;;16572807;28;20191;-49
2022/10/16 03:47:37;;;;;;;9.30;2.70;;;;;17.30;98753.00;;;;16564278;28;20219;-49
2022/10/16 03:55:43;;;;;;;8.10;2.90;;;;;17.30;98756.00;;;;16575752;28;20238;-49
2022/10/16 04:03:45;;;;;;;6.83;3.27;;;;;17.80;98762.00;;;;16569197;28;20219;-49
2022/10/16 04:11:49;;;;;;;8.27;3.40;;;;;17.70;98756.00;;;;16559998;28;20228;-49
2022/10/16 04:19:51;;;;;;;11.63;3.87;;;;;17.80;98754.00;;;;16570113;28;20601;-49
2022/10/16 04:27:55;;;;;;;5.97;3.20;;;;;17.20;98764.00;;;;16565602;28;20748;-49
2022/10/16 04:35:58;;;;;;;5.27;3.27;;;;;17.00;98764.00;;;;16570030;28;20597;-49
2022/10/16 04:44:02;;;;;;;6.07;3.63;;;;;17.10;98771.00;;;;16567093;28;20223;-49
2022/10/16 04:52:05;;;;;;;10.57;3.63;;;;;17.40;98770.00;;;;16569726;28;20660;-49
2022/10/16 05:00:10;;;;;;;7.63;3.20;;;;;16.80;98783.00;;;;16566393;28;20211;-49
2022/10/16 05:08:13;;;;;;;6.87;3.00;;;;;16.80;98796.00;;;;16556596;28;20226;-49
2022/10/16 05:16:17;;;;;;;6.10;2.90;;;;;17.20;98807.00;;;;16566791;28;20572;-49
2022/10/16 05:24:19;;;;;;;4.43;3.30;;;;;17.00;98803.00;;;;16553616;28;20884;-50
2022/10/16 05:32:23;;;;;;;8.10;3.40;;;;;16.90;98792.00;;;;16554949;28;20239;-49
2022/10/16 05:40:26;;;;;;;6.50;3.40;;;;;17.00;98796.00;;;;16560917;28;20206;-49
2022/10/16 05:48:30;;;;;;;5.20;2.90;;;;;16.50;98808.00;;;;16552876;28;20228;-49
2022/10/16 05:56:33;;;;;;;3.93;2.67;;;;;16.80;98807.00;;;;16565262;28;20825;-47
2022/10/16 06:04:36;;;;;;;3.47;3.00;;;;;16.70;98820.00;;;;16569283;28;20206;-47
2022/10/16 06:12:39;;;;;;;3.13;2.83;;;;;16.80;98835.00;;;;16563291;28;20229;-47
2022/10/16 06:20:43;;;;;;;7.47;3.67;;;;;17.40;98835.00;;;;16565567;28;20192;-47
2022/10/16 06:28:45;;;;;;;5.07;3.20;;;;;16.90;98841.00;;;;16551723;28;20231;-47
2022/10/16 06:36:49;;;;;;;4.30;2.40;;;;;17.40;98847.00;;;;16556982;28;20323;-48
2022/10/16 06:44:51;;;;;;;3.93;3.00;;;;;18.00;98846.00;;;;16549277;28;20220;-47
2022/10/16 06:52:55;;;;;;;4.93;2.80;;;;;17.30;98856.00;;;;16551772;28;20223;-47
2022/10/16 07:00:58;;;;;;;5.83;2.50;;;;;17.70;98870.00;;;;16565925;28;20199;-48
2022/10/16 07:09:04;;;;;;;5.23;3.17;;;;;18.40;98860.00;;;;16551182;28;20220;-47
2022/10/16 07:17:06;;;;;;;6.07;3.30;;;;;18.30;98876.00;;;;16544720;28;20231;-47
2022/10/16 07:25:10;;;;;;;11.33;2.80;;;;;18.60;98897.00;;;;16563704;28;20788;-48
2022/10/16 07:33:13;;;;;;;8.03;3.20;;;;;18.80;98905.00;;;;16556038;28;20230;-48
2022/10/16 07:41:18;;;;;;;4.43;3.77;;;;;18.90;98908.00;;;;16573685;28;20227;-48
2022/10/16 07:49:21;;;;;;;8.23;3.27;;;;;18.70;98911.00;;;;16553591;28;20334;-48
2022/10/16 07:57:24;;;;;;;6.43;3.60;;;;;18.60;98925.00;;;;16569165;28;20838;-48
2022/10/16 08:05:27;;;;;;;4.00;2.67;;;;;18.90;98948.00;;;;16567042;28;20227;-48
2022/10/16 08:13:31;;;;;;;6.93;2.77;;;;;19.00;98931.00;;;;16563813;28;20216;-47
2022/10/16 08:21:33;;;;;;;3.53;3.07;;;;;19.00;98920.00;;;;16544032;28;20242;-48
2022/10/16 08:29:38;;;;;;;8.10;4.43;;;;;19.30;98929.00;;;;16566903;28;20705;-48
2022/10/16 08:37:40;;;;;;;9.63;3.03;;;;;19.60;98943.00;;;;16581426;28;20239;-48
2022/10/16 08:46:19;;;;;;;5.50;3.07;;;;;19.80;98965.00;;;;16566016;28;20223;-48
2022/10/16 08:54:29;;;;;;;3.00;2.80;;;;;20.00;98958.00;;;;16551106;28;20326;-48
2022/10/16 09:02:36;;;;;;;6.70;2.40;;;;;20.10;98956.00;;;;16564518;28;20239;-48
2022/10/16 09:10:45;;;;;;;2.20;2.00;;;;;20.30;98969.00;;;;16576961;28;20281;-48
2022/10/16 09:18:53;;;;;;;3.87;2.47;;;;;20.60;98965.00;;;;16574824;28;20203;-48
2022/10/16 09:26:55;;;;;;;3.90;2.13;;;;;21.00;98969.00;;;;16578199;28;20231;-48
2022/10/16 09:34:59;;;;;;;4.87;2.17;;;;;21.00;98979.00;;;;16571617;28;20223;-48
2022/10/16 09:43:09;;;;;;;4.63;2.20;;;;;21.50;98987.00;;;;16559377;28;20243;-48
2022/10/16 09:51:21;;;;;;;3.07;2.20;;;;;22.00;98979.00;;;;16558458;28;20254;-48
2022/10/16 09:59:26;;;;;;;5.47;2.57;;;;;23.50;98974.00;;;;16569026;28;20218;-47
2022/10/16 10:07:33;;;;;;;2.17;2.00;;;;;23.70;98968.00;;;;16568743;28;20215;-48
2022/10/16 10:15:42;;;;;;;5.50;2.50;;;;;24.20;98978.00;;;;16576358;28;20228;-48
2022/10/16 10:23:57;;;;;;;5.53;3.73;;;;;24.80;98986.00;;;;16568935;28;20233;-48
2022/10/16 10:32:09;;;;;;;3.10;2.70;;;;;25.00;98973.00;;;;16575041;28;20239;-48
2022/10/16 10:40:24;;;;;;;2.70;1.73;;;;;25.10;98979.00;;;;16566644;28;20338;-49
2022/10/16 10:48:43;;;;;;;3.97;1.90;;;;;25.90;98989.00;;;;16565347;28;20353;-48
2022/10/16 10:56:53;;;;;;;3.03;1.70;;;;;26.90;98988.00;;;;16557553;28;20670;-49
2022/10/16 11:05:17;;;;;;;2.10;1.90;;;;;26.80;98987.00;;;;16567203;28;20219;-49
2022/10/16 11:13:28;;;;;;;4.33;1.87;;;;;28.70;98976.00;;;;16563852;28;20231;-49
2022/10/16 11:21:34;;;;;;;3.93;1.50;;;;;28.70;98966.00;;;;16548085;28;20236;-49
2022/10/16 11:29:46;;;;;;;4.80;1.83;;;;;28.10;98969.00;;;;16562457;28;20262;-48
2022/10/16 11:37:50;;;;;;;3.50;2.23;;;;;27.80;98974.00;;;;16560732;28;20224;-48
2022/10/16 11:45:57;;;;;;;2.93;1.90;;;;;29.00;98963.00;;;;16569159;28;20753;-50
2022/10/16 11:54:03;;;;;;;2.63;2.00;;;;;29.10;98971.00;;;;16560749;28;20243;-49
2022/10/16 12:02:27;;;;;;;2.07;1.70;;;;;29.00;98963.00;;;;16568305;28;20638;-49
2022/10/16 12:10:36;;;;;;;3.03;1.37;;;;;29.70;98959.00;;;;16584472;28;20420;-49
2022/10/16 12:18:41;;;;;;;2.00;1.10;;;;;29.70;98954.00;;;;16580692;28;20215;-49
2022/10/16 12:26:46;;;;;;;2.50;1.50;;;;;31.00;98949.00;;;;16581607;28;20249;-50
2022/10/16 12:34:50;;;;;;;1.53;1.43;;;;;29.90;98964.00;;;;16560097;28;20306;-49
2022/10/16 12:42:52;;;;;;;6.73;1.73;;;;;28.60;98972.00;;;;16569294;28;20219;-49
2022/10/16 12:50:56;;;;;;;2.60;1.30;;;;;30.10;98968.00;;;;16558554;28;20286;-50
2022/10/16 12:59:07;;;;;;;1.57;1.47;;;;;30.20;98973.00;;;;16567345;28;20198;-49
2022/10/16 13:07:29;;;;;;;4.13;2.00;;;;;29.30;98982.00;;;;16568122;28;20224;-49
2022/10/16 13:15:40;;;;;;;4.50;2.60;;;;;29.90;98995.00;;;;16563793;28;20262;-50
2022/10/16 13:23:52;;;;;;;2.37;2.17;;;;;30.20;98997.00;;;;16569558;28;20242;-49
2022/10/16 13:31:54;;;;;;;2.13;1.60;;;;;29.90;99000.00;;;;16571815;28;21172;-49
2022/10/16 13:40:13;;;;;;;1.50;1.40;;;;;29.90;99002.00;;;;16572698;28;20208;-50
2022/10/16 13:48:15;;;;;;;14.23;11.90;;;;;29.80;99001.00;;;;16564209;28;20223;-48
2022/10/16 13:56:21;;;;;;;8.07;3.73;;;;;27.90;99007.00;;;;16570721;28;20612;-49
2022/10/16 14:04:24;;;;;;;2.70;2.20;;;;;29.60;98998.00;;;;16568012;28;20212;-49
2022/10/16 14:12:28;;;;;;;2.63;2.43;;;;;29.00;99003.00;;;;16562354;28;20274;-49
2022/10/16 14:20:32;;;;;;;3.53;2.20;;;;;28.90;98996.00;;;;16558207;28;20705;-49
2022/10/16 14:28:36;;;;;;;6.77;5.20;;;;;25.90;99019.00;;;;16567494;28;20238;-49
2022/10/16 14:36:42;;;;;;;15.27;4.17;;;;;25.00;99024.00;;;;16572058;28;20233;-49
2022/10/16 14:44:46;;;;;;;5.87;3.23;;;;;24.40;99025.00;;;;16565931;28;20218;-48
2022/10/16 14:52:49;;;;;;;2.87;2.60;;;;;24.30;99034.00;;;;16555508;28;20629;-49
2022/10/16 15:00:53;;;;;;;5.40;2.80;;;;;24.40;99036.00;;;;16567546;28;20203;-49
2022/10/16 15:08:55;;;;;;;5.87;4.47;;;;;24.70;99034.00;;;;16568060;28;20207;-48
2022/10/16 15:16:59;;;;;;;9.03;3.90;;;;;24.70;99023.00;;;;16560298;28;20233;-49
2022/10/16 15:25:02;;;;;;;5.63;3.30;;;;;24.70;99027.00;;;;16560533;28;20227;-49
2022/10/16 15:33:10;;;;;;;6.40;2.70;;;;;25.00;99030.00;;;;16568226;28;20576;-48
2022/10/16 15:41:12;;;;;;;13.73;5.63;;;;;24.10;99027.00;;;;16563152;28;20224;-49
2022/10/16 15:49:16;;;;;;;18.83;8.47;;;;;22.90;99040.00;;;;16567829;28;20257;-49
2022/10/16 15:57:19;;;;;;;25.63;11.53;;;;;22.80;99052.00;;;;16561886;28;20607;-48
2022/10/16 16:05:23;;;;;;;23.10;11.33;;;;;22.90;99047.00;;;;16566447;28;20298;-49
2022/10/16 16:13:26;;;;;;;9.57;7.23;;;;;22.00;99047.00;;;;16558343;28;20265;-49
2022/10/16 16:21:29;;;;;;;9.60;5.60;;;;;21.50;99059.00;;;;16556474;28;20239;-48
2022/10/16 16:29:32;;;;;;;5.07;3.20;;;;;21.20;99060.00;;;;16551631;28;20220;-48
2022/10/16 16:37:36;;;;;;;8.37;3.37;;;;;20.90;99075.00;;;;16570491;28;20345;-49
2022/10/16 16:45:38;;;;;;;6.13;3.70;;;;;20.80;99080.00;;;;16560072;28;20239;-49
2022/10/16 16:53:42;;;;;;;8.50;3.40;;;;;20.60;99088.00;;;;16560398;28;20246;-48
2022/10/16 17:01:45;;;;;;;9.23;3.87;;;;;20.30;99098.00;;;;16552533;28;20212;-49
2022/10/16 17:09:49;;;;;;;12.73;4.50;;;;;20.10;99093.00;;;;16573543;28;20203;-49
2022/10/16 17:17:51;;;;;;;10.70;3.60;;;;;19.60;99115.00;;;;16572258;28;20273;-49
2022/10/16 17:25:55;;;;;;;11.47;3.90;;;;;19.90;99108.00;;;;16556239;28;20318;-49
2022/10/16 17:33:59;;;;;;;15.53;5.57;;;;;19.40;99118.00;;;;16566012;28;20605;-49
2022/10/16 17:42:02;;;;;;;16.63;5.40;;;;;19.50;99129.00;;;;16575829;28;20346;-48
2022/10/16 17:50:05;;;;;;;5.83;4.33;;;;;19.50;99131.00;;;;16573469;28;20227;-49
2022/10/16 17:58:09;;;;;;;7.80;3.50;;;;;19.40;99149.00;;;;16565932;28;20227;-49
2022/10/16 18:06:12;;;;;;;8.43;4.10;;;;;19.70;99153.00;;;;16547534;28;20211;-49
2022/10/16 18:14:17;;;;;;;10.20;4.30;;;;;19.40;99162.00;;;;16571234;28;20231;-49
2022/10/16 18:22:19;;;;;;;10.63;4.87;;;;;19.10;99165.00;;;;16571383;28;20230;-49
2022/10/16 18:30:23;;;;;;;6.90;5.20;;;;;19.00;99175.00;;;;16565299;28;20237;-49
2022/10/16 18:38:25;;;;;;;11.03;4.63;;;;;18.70;99187.00;;;;16570616;28;20216;-48
2022/10/16 18:46:29;;;;;;;9.97;5.60;;;;;18.40;99190.00;;;;16568630;28;20224;-49
2022/10/16 18:54:32;;;;;;;10.40;4.97;;;;;18.20;99191.00;;;;16569018;28;20764;-48
2022/10/16 19:02:36;;;;;;;7.50;4.93;;;;;18.30;99198.00;;;;16561955;28;20223;-49
2022/10/16 19:10:40;;;;;;;14.50;4.77;;;;;18.40;99201.00;;;;16572956;28;20211;-49
2022/10/16 19:18:44;;;;;;;10.63;5.20;;;;;18.60;99211.00;;;;16568839;28;20691;-49
2022/10/16 19:26:47;;;;;;;6.67;4.33;;;;;18.10;99220.00;;;;16568548;28;20235;-48
2022/10/16 19:34:51;;;;;;;8.47;5.53;;;;;18.30;99219.00;;;;16560975;28;20340;-49
2022/10/16 19:42:54;;;;;;;13.43;5.50;;;;;18.00;99224.00;;;;16550219;28;20310;-49
2022/10/16 19:50:58;;;;;;;12.03;5.03;;;;;17.80;99230.00;;;;16553597;28;20274;-48
2022/10/16 19:59:00;;;;;;;10.93;5.60;;;;;17.90;99233.00;;;;16559420;28;20235;-49
2022/10/16 20:07:04;;;;;;;11.40;5.10;;;;;17.60;99239.00;;;;16554902;28;20310;-48
2022/10/16 20:15:08;;;;;;;12.10;5.70;;;;;17.80;99248.00;;;;16558076;28;20219;-48
2022/10/16 20:23:12;;;;;;;7.70;5.40;;;;;17.50;99269.00;;;;16553278;28;20236;-48
2022/10/16 20:31:17;;;;;;;10.77;5.70;;;;;17.10;99272.00;;;;16567489;28;20232;-48
2022/10/16 20:39:21;;;;;;;10.33;5.43;;;;;17.20;99288.00;;;;16564318;28;20853;-49
2022/10/16 20:47:23;;;;;;;8.67;5.37;;;;;17.70;99298.00;;;;16562905;28;20289;-49
2022/10/16 20:55:27;;;;;;;8.90;5.40;;;;;17.60;99309.00;;;;16562398;28;20715;-49
2022/10/16 21:03:30;;;;;;;6.57;4.87;;;;;17.10;99314.00;;;;16572192;28;20246;-48
2022/10/16 21:11:35;;;;;;;9.33;5.40;;;;;17.00;99324.00;;;;16575548;28;20226;-49
2022/10/16 21:19:37;;;;;;;9.17;4.97;;;;;16.80;99337.00;;;;16562638;28;20211;-49
2022/10/16 21:27:42;;;;;;;6.90;4.80;;;;;16.90;99342.00;;;;16566286;28;20246;-49
2022/10/16 21:35:44;;;;;;;11.13;4.97;;;;;17.20;99345.00;;;;16580083;28;20313;-49
2022/10/16 21:43:48;;;;;;;8.90;4.50;;;;;17.10;99347.00;;;;16564172;28;20711;-48
2022/10/16 21:52:47;;;;;;;4.60;4.20;;;;;16.60;99346.00;;;;16561910;28;20247;-48
2022/10/16 22:00:50;;;;;;;9.93;4.37;;;;;16.50;99349.00;;;;16559449;28;20217;-48
2022/10/16 22:08:54;;;;;;;9.33;5.00;;;;;16.10;99342.00;;;;16561740;28;20218;-48
2022/10/16 22:16:58;;;;;;;9.13;4.83;;;;;16.10;99346.00;;;;16557847;28;20227;-48
2022/10/16 22:25:00;;;;;;;11.53;4.23;;;;;15.90;99347.00;;;;16555222;28;20326;-48
2022/10/16 22:33:05;;;;;;;9.17;4.30;;;;;16.10;99353.00;;;;16559996;28;20691;-48
2022/10/16 22:41:09;;;;;;;6.93;4.07;;;;;16.00;99349.00;;;;16559441;28;20249;-48
2022/10/16 22:49:15;;;;;;;5.73;4.40;;;;;16.30;99352.00;;;;16558806;28;20208;-48
2022/10/16 22:57:17;;;;;;;4.80;3.93;;;;;16.00;99361.00;;;;16558201;28;20233;-48
2022/10/16 23:05:21;;;;;;;12.03;4.50;;;;;15.80;99354.00;;;;16556190;28;20219;-48
2022/10/16 23:13:24;;;;;;;8.43;4.20;;;;;15.90;99360.00;;;;16572959;28;20321;-49
2022/10/16 23:21:27;;;;;;;11.53;3.93;;;;;16.00;99363.00;;;;16564961;28;20235;-48
2022/10/16 23:29:30;;;;;;;11.20;4.27;;;;;15.80;99365.00;;;;16560078;22;20243;-81
2022/10/16 23:37:34;;;;;;;8.20;3.63;;;;;15.90;99380.00;;;;16497518;28;20656;-82
2022/10/16 23:45:36;;;;;;;9.67;3.90;;;;;15.90;99382.00;;;;16491653;28;20228;-81
2022/10/16 23:53:40;;;;;;;5.60;3.60;;;;;16.30;99383.00;;;;16474288;28;20322;-81
